createdAt,value
2022-08-22T00:00:24.715Z,52.47
2022-08-22T00:02:56.595Z,48.10
2022-08-22T00:03:03.230Z,41.17
2022-08-22T00:03:10.645Z,53.88
2022-08-22T00:03:11.074Z,46.30
2022-08-22T00:03:15.539Z,39.72
2022-08-22T00:03:17.338Z,32.17
2022-08-22T00:05:59.755Z,28.98
2022-08-22T00:08:45.431Z,44.72
2022-08-22T00:11:25.876Z,56.53
2022-08-22T00:14:14.905Z,58.15
2022-08-22T00:16:54.278Z,45.80
2022-08-22T00:19:56.739Z,55.83
2022-08-22T00:22:40.909Z,55.85
2022-08-22T00:25:24.612Z,52.03
2022-08-22T00:28:21.495Z,54.75
2022-08-22T00:31:03.407Z,67.82
2022-08-22T00:33:56.816Z,52.80
2022-08-22T00:36:26.203Z,64.30
2022-08-22T00:39:10.190Z,62.13
2022-08-22T00:41:58.413Z,56.33
2022-08-22T00:45:01.170Z,40.47
2022-08-22T00:47:51.623Z,43.55
2022-08-22T00:50:54.070Z,58.40
2022-08-22T00:53:39.509Z,49.33
2022-08-22T00:56:36.072Z,53.20
2022-08-22T00:59:27.674Z,44.55
2022-08-22T01:02:27.596Z,50.42
2022-08-22T01:05:00.353Z,54.25
2022-08-22T01:07:39.275Z,44.70
2022-08-22T01:10:28.121Z,30.48
2022-08-22T01:13:16.160Z,68.40
2022-08-22T01:19:35.995Z,75.75
2022-08-22T01:22:44.978Z,46.53
2022-08-22T01:25:32.443Z,35.70
2022-08-22T01:28:22.880Z,47.65
2022-08-22T01:31:19.783Z,47.95
2022-08-22T01:34:05.385Z,50.85
2022-08-22T01:36:45.924Z,54.10
2022-08-22T01:39:29.036Z,53.22
2022-08-22T01:42:06.179Z,38.85
2022-08-22T01:44:39.126Z,35.72
2022-08-22T01:47:23.183Z,22.73
2022-08-22T01:49:58.928Z,64.45
2022-08-22T01:52:46.678Z,60.78
2022-08-22T01:55:26.615Z,70.57
2022-08-22T01:57:58.972Z,59.88
2022-08-22T02:00:35.093Z,71.87
2022-08-22T02:03:23.706Z,60.70
2022-08-22T02:05:59.322Z,70.88
2022-08-22T02:08:32.241Z,56.72
2022-08-22T02:11:13.216Z,61.65
2022-08-22T02:14:03.741Z,54.78
2022-08-22T02:16:39.142Z,53.22
2022-08-22T02:19:14.514Z,47.30
2022-08-22T02:21:51.382Z,41.67
2022-08-22T02:24:33.661Z,60.40
2022-08-22T02:27:04.395Z,46.28
2022-08-22T02:29:56.379Z,44.60
2022-08-22T02:32:33.763Z,37.53
2022-08-22T02:35:17.452Z,57.85
2022-08-22T02:37:47.335Z,52.90
2022-08-22T02:40:22.484Z,43.90
2022-08-22T02:43:07.653Z,46.97
2022-08-22T02:45:43.690Z,40.47
2022-08-22T02:48:32.776Z,51.00
2022-08-22T02:51:10.372Z,46.35
2022-08-22T02:53:40.200Z,39.42
2022-08-22T02:56:17.045Z,50.83
2022-08-22T02:59:29.241Z,40.95
2022-08-22T03:01:56.734Z,35.50
2022-08-22T03:04:32.765Z,40.92
2022-08-22T03:07:04.054Z,42.63
2022-08-22T03:09:47.629Z,37.85
2022-08-22T03:12:19.000Z,47.53
2022-08-22T03:15:23.307Z,50.45
2022-08-22T03:18:04.812Z,41.72
2022-08-22T03:20:41.044Z,49.90
2022-08-22T03:23:16.070Z,50.33
2022-08-22T03:26:07.646Z,41.60
2022-08-22T03:28:59.041Z,40.88
2022-08-22T03:31:29.256Z,39.45
2022-08-22T03:34:15.089Z,46.58
2022-08-22T03:37:07.016Z,56.97
2022-08-22T03:40:01.452Z,59.90
2022-08-22T03:43:06.034Z,49.00
2022-08-22T03:48:46.584Z,51.00
2022-08-22T03:51:51.921Z,39.92
2022-08-22T03:54:24.970Z,42.17
2022-08-22T03:57:45.429Z,38.53
2022-08-22T04:00:36.843Z,41.60
2022-08-22T04:03:36.895Z,39.78
2022-08-22T04:06:35.558Z,41.63
2022-08-22T04:09:24.560Z,35.47
2022-08-22T04:12:14.296Z,31.30
2022-08-22T04:14:47.982Z,36.42
2022-08-22T04:20:07.054Z,39.20
2022-08-22T04:23:01.663Z,41.17
2022-08-22T04:25:36.591Z,35.83
2022-08-22T04:28:10.661Z,35.65
2022-08-22T04:30:56.448Z,39.00
2022-08-22T04:33:32.491Z,41.22
2022-08-22T04:36:10.515Z,30.75
2022-08-22T04:38:44.770Z,28.00
2022-08-22T04:41:18.667Z,30.85
2022-08-22T04:43:51.202Z,31.10
2022-08-22T04:46:23.292Z,37.78
2022-08-22T04:49:08.215Z,29.27
2022-08-22T04:51:46.864Z,31.75
2022-08-22T04:54:44.056Z,31.83
2022-08-22T04:57:22.793Z,29.73
2022-08-22T04:59:51.165Z,33.60
2022-08-22T05:02:24.480Z,38.60
2022-08-22T05:05:00.567Z,44.50
2022-08-22T05:07:36.230Z,29.35
2022-08-22T05:10:13.874Z,38.38
2022-08-22T05:13:00.832Z,39.65
2022-08-22T05:15:37.877Z,26.98
2022-08-22T05:18:16.959Z,26.98
2022-08-22T05:20:49.241Z,26.33
2022-08-22T05:23:36.734Z,32.85
2022-08-22T05:26:06.169Z,39.90
2022-08-22T05:28:43.985Z,33.75
2022-08-22T05:31:18.601Z,27.08
2022-08-22T05:34:04.940Z,26.42
2022-08-22T05:36:37.243Z,24.95
2022-08-22T05:39:16.596Z,30.20
2022-08-22T05:41:45.023Z,24.58
2022-08-22T05:44:25.937Z,30.58
2022-08-22T05:47:19.146Z,29.58
2022-08-22T05:49:57.802Z,27.88
2022-08-22T05:52:33.367Z,24.52
2022-08-22T05:55:26.731Z,22.38
2022-08-22T05:58:13.146Z,24.23
2022-08-22T06:00:44.797Z,19.42
2022-08-22T06:03:39.227Z,22.08
2022-08-22T06:06:17.886Z,18.92
2022-08-22T06:08:56.277Z,21.75
2022-08-22T06:11:34.038Z,21.73
2022-08-22T06:14:32.692Z,17.95
2022-08-22T06:17:09.132Z,18.77
2022-08-22T06:19:40.584Z,20.25
2022-08-22T06:22:08.595Z,18.48
2022-08-22T06:24:40.769Z,16.25
2022-08-22T06:27:14.606Z,17.23
2022-08-22T06:29:49.212Z,13.57
2022-08-22T06:32:44.502Z,16.80
2022-08-22T06:35:22.626Z,14.45
2022-08-22T06:37:51.874Z,17.83
2022-08-22T06:40:19.300Z,19.25
2022-08-22T06:42:51.725Z,17.42
2022-08-22T06:45:23.014Z,18.65
2022-08-22T06:48:00.281Z,21.83
2022-08-22T06:50:35.054Z,17.38
2022-08-22T06:53:07.909Z,18.90
2022-08-22T06:55:39.376Z,24.15
2022-08-22T06:58:12.600Z,27.75
2022-08-22T07:00:42.815Z,20.73
2022-08-22T07:03:12.767Z,18.92
2022-08-22T07:05:43.132Z,17.27
2022-08-22T07:08:20.700Z,23.70
2022-08-22T07:10:58.869Z,31.85
2022-08-22T07:13:28.659Z,28.58
2022-08-22T07:16:00.119Z,42.78
2022-08-22T07:18:29.955Z,40.10
2022-08-22T07:21:04.623Z,43.30
2022-08-22T07:23:40.282Z,45.20
2022-08-22T07:26:26.591Z,51.95
2022-08-22T07:29:05.054Z,36.53
2022-08-22T07:31:34.893Z,43.33
2022-08-22T07:34:20.270Z,36.83
2022-08-22T07:37:05.880Z,50.47
2022-08-22T07:39:43.188Z,35.80
2022-08-22T07:42:21.851Z,38.83
2022-08-22T07:44:51.798Z,42.15
2022-08-22T07:47:26.321Z,37.90
2022-08-22T07:50:00.472Z,34.63
2022-08-22T07:52:34.566Z,42.22
2022-08-22T07:55:25.842Z,32.08
2022-08-22T07:57:58.591Z,39.65
2022-08-22T08:00:29.891Z,35.70
2022-08-22T08:03:02.054Z,41.70
2022-08-22T08:05:33.086Z,30.98
2022-08-22T08:08:07.011Z,29.13
2022-08-22T08:10:37.680Z,26.83
2022-08-22T08:13:13.488Z,33.20
2022-08-22T08:15:45.697Z,32.45
2022-08-22T08:18:19.659Z,32.58
2022-08-22T08:20:55.135Z,31.15
2022-08-22T08:23:23.917Z,37.78
2022-08-22T08:25:58.218Z,37.78
2022-08-22T08:28:34.803Z,33.15
2022-08-22T08:31:19.138Z,41.10
2022-08-22T08:33:48.744Z,43.80
2022-08-22T08:36:50.269Z,45.25
2022-08-22T08:39:23.497Z,46.22
2022-08-22T08:42:15.370Z,38.97
2022-08-22T08:45:09.832Z,43.58
2022-08-22T08:48:14.363Z,45.15
2022-08-22T08:50:50.222Z,47.53
2022-08-22T08:53:57.564Z,51.08
2022-08-22T08:56:44.952Z,48.22
2022-08-22T08:59:34.946Z,57.75
2022-08-22T09:05:31.491Z,96.68
2022-08-22T09:08:18.540Z,87.43
2022-08-22T09:11:12.009Z,85.13
2022-08-22T09:17:42.859Z,65.28
2022-08-22T09:20:31.397Z,56.88
2022-08-22T09:23:26.321Z,70.28
2022-08-22T09:25:55.968Z,60.60
2022-08-22T09:28:32.727Z,61.80
2022-08-22T09:31:16.910Z,62.03
2022-08-22T09:33:59.987Z,49.60
2022-08-22T09:36:56.693Z,60.38
2022-08-22T09:39:31.882Z,45.40
2022-08-22T09:42:51.407Z,58.75
2022-08-22T09:45:50.067Z,58.55
2022-08-22T09:48:35.397Z,44.35
2022-08-22T09:51:32.166Z,41.38
2022-08-22T09:54:02.636Z,47.85
2022-08-22T09:56:59.092Z,38.65
2022-08-22T09:59:50.371Z,44.63
2022-08-22T10:02:44.787Z,46.25
2022-08-22T10:05:35.281Z,31.95
2022-08-22T10:08:46.234Z,44.78
2022-08-22T10:11:13.314Z,45.17
2022-08-22T10:14:00.550Z,37.70
2022-08-22T10:16:49.949Z,48.63
2022-08-22T10:19:46.190Z,48.05
2022-08-22T10:22:34.500Z,41.58
2022-08-22T10:25:25.135Z,41.30
2022-08-22T10:28:10.778Z,50.13
2022-08-22T10:31:16.171Z,53.40
2022-08-22T10:34:09.879Z,47.42
2022-08-22T10:36:36.939Z,37.10
2022-08-22T10:39:09.482Z,40.45
2022-08-22T10:42:03.685Z,36.28
2022-08-22T10:44:49.362Z,49.63
2022-08-22T10:47:22.525Z,35.42
2022-08-22T10:49:54.893Z,33.65
2022-08-22T10:52:30.937Z,40.58
2022-08-22T10:55:13.827Z,42.97
2022-08-22T10:58:17.959Z,44.17
2022-08-22T11:00:54.503Z,41.17
2022-08-22T11:03:47.870Z,47.70
2022-08-22T11:06:19.704Z,40.05
2022-08-22T11:08:46.742Z,48.83
2022-08-22T11:11:23.083Z,42.72
2022-08-22T11:14:33.295Z,45.97
2022-08-22T11:17:27.525Z,40.25
2022-08-22T11:20:25.911Z,49.72
2022-08-22T11:26:06.123Z,40.67
2022-08-22T11:29:16.817Z,48.80
2022-08-22T11:32:05.953Z,44.80
2022-08-22T11:34:42.295Z,38.35
2022-08-22T11:37:43.383Z,40.55
2022-08-22T11:40:32.065Z,48.13
2022-08-22T11:43:03.212Z,40.50
2022-08-22T11:45:41.213Z,38.38
2022-08-22T11:48:15.114Z,39.75
2022-08-22T11:51:17.605Z,40.13
2022-08-22T11:54:12.429Z,35.47
2022-08-22T11:56:50.333Z,41.55
2022-08-22T11:59:28.798Z,44.47
2022-08-22T12:02:01.552Z,37.00
2022-08-22T12:04:46.987Z,41.60
2022-08-22T12:07:13.933Z,40.10
2022-08-22T12:09:52.294Z,38.38
2022-08-22T12:12:25.547Z,33.72
2022-08-22T12:15:09.216Z,42.05
2022-08-22T12:18:03.593Z,39.17
2022-08-22T12:20:34.135Z,42.05
2022-08-22T12:23:43.502Z,39.45
2022-08-22T12:26:25.835Z,39.70
2022-08-22T12:29:15.221Z,42.40
2022-08-22T12:31:58.855Z,42.13
2022-08-22T12:34:34.833Z,38.28
2022-08-22T12:37:30.344Z,39.80
2022-08-22T12:40:19.948Z,36.95
2022-08-22T12:43:18.754Z,39.08
2022-08-22T12:45:56.907Z,40.42
2022-08-22T12:48:49.354Z,30.08
2022-08-22T12:51:55.793Z,37.33
2022-08-22T12:54:27.351Z,37.60
2022-08-22T12:57:03.011Z,40.85
2022-08-22T12:59:40.867Z,35.03
2022-08-22T13:02:19.311Z,32.95
2022-08-22T13:05:11.853Z,31.48
2022-08-22T13:07:57.717Z,29.90
2022-08-22T13:10:44.957Z,32.60
2022-08-22T13:13:38.710Z,34.97
2022-08-22T13:16:13.489Z,36.50
2022-08-22T13:18:53.927Z,31.42
2022-08-22T13:21:35.939Z,33.70
2022-08-22T13:24:39.211Z,35.72
2022-08-22T13:27:50.576Z,30.40
2022-08-22T13:30:33.815Z,33.97
2022-08-22T13:33:35.189Z,34.08
2022-08-22T13:36:07.244Z,37.00
2022-08-22T13:38:52.275Z,32.25
2022-08-22T13:41:28.309Z,34.15
2022-08-22T13:44:05.075Z,29.80
2022-08-22T13:46:35.543Z,35.10
2022-08-22T13:49:08.058Z,29.95
2022-08-22T13:51:54.231Z,34.07
2022-08-22T13:54:27.562Z,34.03
2022-08-22T13:57:05.266Z,30.02
2022-08-22T13:59:51.529Z,34.47
2022-08-22T14:02:43.381Z,30.58
2022-08-22T14:05:17.085Z,34.47
2022-08-22T14:07:58.291Z,34.28
2022-08-22T14:10:30.833Z,29.88
2022-08-22T14:12:57.945Z,30.98
2022-08-22T14:15:45.909Z,24.45
2022-08-22T14:18:30.339Z,29.80
2022-08-22T14:21:20.263Z,40.25
2022-08-22T14:23:52.175Z,32.08
2022-08-22T14:26:47.273Z,30.63
2022-08-22T14:29:18.690Z,30.92
2022-08-22T14:32:06.080Z,28.63
2022-08-22T14:34:40.026Z,27.08
2022-08-22T14:37:21.295Z,24.33
2022-08-22T14:40:12.429Z,28.02
2022-08-22T14:42:39.476Z,32.55
2022-08-22T14:45:17.553Z,24.70
2022-08-22T14:48:30.659Z,22.25
2022-08-22T14:51:00.544Z,26.88
2022-08-22T14:53:35.097Z,29.77
2022-08-22T14:56:10.885Z,23.85
2022-08-22T14:59:04.872Z,26.90
2022-08-22T15:01:50.962Z,29.88
2022-08-22T15:04:45.853Z,27.75
2022-08-22T15:07:24.076Z,33.90
2022-08-22T15:09:58.886Z,28.02
2022-08-22T15:12:32.911Z,29.85
2022-08-22T15:15:49.816Z,31.58
2022-08-22T15:18:30.232Z,26.02
2022-08-22T15:21:24.206Z,32.30
2022-08-22T15:23:55.247Z,29.30
2022-08-22T15:26:50.815Z,36.22
2022-08-22T15:29:22.890Z,29.70
2022-08-22T15:31:52.462Z,29.13
2022-08-22T15:34:39.655Z,29.13
2022-08-22T15:37:20.148Z,28.05
2022-08-22T15:40:02.713Z,25.83
2022-08-22T15:42:44.781Z,29.85
2022-08-22T15:45:36.211Z,33.90
2022-08-22T15:48:10.116Z,26.90
2022-08-22T15:50:39.585Z,29.23
2022-08-22T15:53:11.314Z,35.55
2022-08-22T15:56:01.792Z,36.90
2022-08-22T15:58:37.452Z,36.70
2022-08-22T16:01:12.600Z,34.17
2022-08-22T16:04:14.126Z,27.35
2022-08-22T16:06:51.416Z,25.83
2022-08-22T16:09:33.468Z,34.70
2022-08-22T16:12:04.586Z,28.02
2022-08-22T16:14:34.512Z,33.47
2022-08-22T16:17:02.629Z,35.40
2022-08-22T16:19:32.031Z,37.33
2022-08-22T16:22:01.876Z,36.63
2022-08-22T16:24:33.880Z,23.98
2022-08-22T16:27:25.052Z,28.60
2022-08-22T16:30:07.458Z,30.73
2022-08-22T16:32:35.521Z,26.05
2022-08-22T16:35:02.575Z,27.92
2022-08-22T16:37:56.042Z,30.52
2022-08-22T16:40:25.600Z,29.15
2022-08-22T16:43:12.705Z,23.52
2022-08-22T16:45:42.397Z,28.40
2022-08-22T16:48:36.998Z,25.08
2022-08-22T16:51:09.723Z,32.10
2022-08-22T16:53:45.770Z,26.52
2022-08-22T16:56:32.701Z,29.90
2022-08-22T16:59:23.734Z,24.20
2022-08-22T17:02:23.780Z,32.50
2022-08-22T17:04:57.328Z,30.73
2022-08-22T17:07:43.878Z,28.55
2022-08-22T17:10:34.887Z,30.48
2022-08-22T17:13:06.696Z,29.98
2022-08-22T17:15:55.845Z,29.02
2022-08-22T17:18:44.905Z,21.60
2022-08-22T17:21:30.580Z,26.90
2022-08-22T17:24:32.399Z,25.85
2022-08-22T17:27:14.304Z,27.73
2022-08-22T17:29:58.987Z,28.25
2022-08-22T17:32:59.128Z,30.48
2022-08-22T17:35:55.316Z,22.23
2022-08-22T17:38:31.012Z,28.33
2022-08-22T17:41:02.053Z,33.60
2022-08-22T17:43:33.421Z,30.02
2022-08-22T17:46:36.162Z,28.07
2022-08-22T17:49:30.417Z,26.17
2022-08-22T17:52:06.710Z,32.50
2022-08-22T17:54:37.225Z,29.33
2022-08-22T17:57:12.828Z,28.92
2022-08-22T17:59:46.134Z,30.02
2022-08-22T18:05:07.479Z,33.47
2022-08-22T18:08:37.304Z,26.15
2022-08-22T18:11:12.605Z,26.90
2022-08-22T18:13:53.000Z,27.35
2022-08-22T18:16:34.944Z,39.42
2022-08-22T18:19:20.454Z,34.53
2022-08-22T18:21:53.034Z,33.67
2022-08-22T18:24:36.869Z,34.63
2022-08-22T18:27:34.981Z,27.98
2022-08-22T18:30:17.411Z,29.77
2022-08-22T18:32:54.860Z,37.28
2022-08-22T18:35:31.748Z,33.75
2022-08-22T18:38:19.228Z,39.20
2022-08-22T18:40:53.727Z,35.83
2022-08-22T18:43:44.784Z,36.10
2022-08-22T18:46:31.965Z,31.15
2022-08-22T18:49:15.553Z,37.17
2022-08-22T18:51:44.125Z,31.83
2022-08-22T18:54:11.835Z,34.78
2022-08-22T18:56:57.652Z,38.83
2022-08-22T19:00:10.747Z,32.75
2022-08-22T19:03:03.702Z,33.35
2022-08-22T19:05:46.137Z,37.30
2022-08-22T19:08:31.435Z,37.08
2022-08-22T19:11:17.010Z,39.28
2022-08-22T19:14:05.971Z,31.95
2022-08-22T19:16:51.231Z,37.85
2022-08-22T19:19:53.451Z,36.28
2022-08-22T19:22:22.813Z,32.65
2022-08-22T19:25:11.122Z,37.50
2022-08-22T19:27:42.463Z,37.80
2022-08-22T19:30:44.547Z,39.63
2022-08-22T19:33:34.606Z,39.40
2022-08-22T19:36:12.604Z,43.90
2022-08-22T19:39:00.270Z,38.08
2022-08-22T19:41:51.011Z,28.10
2022-08-22T19:44:21.178Z,36.05
2022-08-22T19:47:17.698Z,30.15
2022-08-22T19:49:55.440Z,35.38
2022-08-22T19:53:00.398Z,35.88
2022-08-22T19:55:37.067Z,23.70
2022-08-22T19:58:33.448Z,29.60
2022-08-22T20:01:25.559Z,39.15
2022-08-22T20:04:01.410Z,38.72
2022-08-22T20:06:43.872Z,38.47
2022-08-22T20:09:30.517Z,41.05
2022-08-22T20:12:16.714Z,27.67
2022-08-22T20:14:45.933Z,31.38
2022-08-22T20:17:25.141Z,32.15
2022-08-22T20:20:28.011Z,32.15
2022-08-22T20:23:11.759Z,27.05
2022-08-22T20:25:51.366Z,25.42
2022-08-22T20:28:34.174Z,26.85
2022-08-22T20:31:03.680Z,27.10
2022-08-22T20:33:58.316Z,32.53
2022-08-22T20:36:28.315Z,36.15
2022-08-22T20:39:18.517Z,62.88
2022-08-22T20:42:03.611Z,52.15
2022-08-22T20:44:53.429Z,32.60
2022-08-22T20:47:26.670Z,50.88
2022-08-22T20:50:10.538Z,53.80
2022-08-22T20:52:54.309Z,38.00
2022-08-22T20:55:31.290Z,41.20
2022-08-22T20:58:20.968Z,49.33
2022-08-22T21:00:52.979Z,62.55
2022-08-22T21:03:30.366Z,63.03
2022-08-22T21:06:17.386Z,61.50
2022-08-22T21:08:46.555Z,63.22
2022-08-22T21:11:40.636Z,48.40
2022-08-22T21:14:22.247Z,49.95
2022-08-22T21:16:50.412Z,38.20
2022-08-22T21:19:20.354Z,47.03
2022-08-22T21:21:47.657Z,31.80
2022-08-22T21:24:15.052Z,53.92
2022-08-22T21:26:54.097Z,60.45
2022-08-22T21:29:26.810Z,57.22
2022-08-22T21:32:14.867Z,67.90
2022-08-22T21:34:44.622Z,62.25
2022-08-22T21:37:26.237Z,49.67
2022-08-22T21:40:18.079Z,70.38
2022-08-22T21:43:00.600Z,72.50
2022-08-22T21:45:47.211Z,48.22
2022-08-22T21:48:46.288Z,47.70
2022-08-22T21:51:42.295Z,57.95
2022-08-22T21:54:30.303Z,56.13
2022-08-22T21:57:00.360Z,54.30
2022-08-22T21:59:51.037Z,56.42
2022-08-22T22:02:29.660Z,54.50
2022-08-22T22:05:00.330Z,40.97
2022-08-22T22:07:29.170Z,40.88
2022-08-22T22:09:56.573Z,66.70
2022-08-22T22:12:24.643Z,84.15
2022-08-22T22:14:51.954Z,63.17
2022-08-22T22:17:19.905Z,63.53
2022-08-22T22:19:47.375Z,63.85
2022-08-22T22:22:14.477Z,66.10
2022-08-22T22:24:45.086Z,54.25
2022-08-22T22:27:16.785Z,52.17
2022-08-22T22:29:44.191Z,62.10
2022-08-22T22:32:11.348Z,52.33
2022-08-22T22:34:39.497Z,41.10
2022-08-22T22:37:08.752Z,43.70
2022-08-22T22:39:36.945Z,41.05
2022-08-22T22:42:05.088Z,41.80
2022-08-22T22:44:32.275Z,35.97
2022-08-22T22:47:02.972Z,28.00
2022-08-22T22:49:31.794Z,25.13
2022-08-22T22:51:59.963Z,29.75
2022-08-22T22:54:27.575Z,38.03
2022-08-22T22:56:58.654Z,46.13
2022-08-22T22:59:28.106Z,40.72
2022-08-22T23:02:11.114Z,32.17
2022-08-22T23:04:41.292Z,27.00
2022-08-22T23:07:10.038Z,47.47
2022-08-22T23:09:38.469Z,50.03
2022-08-22T23:12:13.746Z,62.60
2022-08-22T23:14:41.042Z,89.13
2022-08-22T23:17:08.390Z,61.75
2022-08-22T23:19:35.930Z,103.13
2022-08-22T23:22:03.103Z,90.90
2022-08-22T23:24:31.376Z,90.00
2022-08-22T23:26:59.330Z,52.42
2022-08-22T23:29:26.362Z,56.95
2022-08-22T23:31:57.480Z,54.72
2022-08-22T23:34:31.932Z,34.05
2022-08-22T23:37:01.550Z,35.80
2022-08-22T23:39:30.368Z,39.55
2022-08-22T23:41:59.102Z,40.97
2022-08-22T23:44:32.663Z,44.60
2022-08-22T23:49:29.656Z,42.75
2022-08-22T23:51:57.191Z,37.97
2022-08-22T23:54:24.466Z,36.80
2022-08-22T23:56:54.987Z,40.35
2022-08-22T23:59:26.477Z,39.97
